sensor_id;sensor_type;location;lat;lon;timestamp;P1;durP1;ratioP1;P2;durP2;ratioP2
2684;SDS011;1352;48.446;9.156;2022-11-20T00:02:18;5.13;;;4.00;;
2684;SDS011;1352;48.446;9.156;2022-11-20T00:04:46;4.23;;;3.70;;
2684;SDS011;1352;48.446;9.156;2022-11-20T00:07:18;6.10;;;3.80;;
2684;SDS011;1352;48.446;9.156;2022-11-20T00:09:49;4.60;;;4.03;;
2684;SDS011;1352;48.446;9.156;2022-11-20T00:12:20;5.40;;;3.83;;
2684;SDS011;1352;48.446;9.156;2022-11-20T00:14:58;4.50;;;4.10;;
2684;SDS011;1352;48.446;9.156;2022-11-20T00:17:46;5.17;;;4.53;;
2684;SDS011;1352;48.446;9.156;2022-11-20T00:20:34;5.10;;;4.60;;
2684;SDS011;1352;48.446;9.156;2022-11-20T00:23:12;6.17;;;4.30;;
2684;SDS011;1352;48.446;9.156;2022-11-20T00:25:49;5.13;;;4.63;;
2684;SDS011;1352;48.446;9.156;2022-11-20T00:28:23;4.50;;;4.10;;
2684;SDS011;1352;48.446;9.156;2022-11-20T00:31:06;5.53;;;5.03;;
2684;SDS011;1352;48.446;9.156;2022-11-20T00:33:42;5.43;;;4.83;;
2684;SDS011;1352;48.446;9.156;2022-11-20T00:36:12;4.90;;;4.50;;
2684;SDS011;1352;48.446;9.156;2022-11-20T00:38:45;5.30;;;4.40;;
2684;SDS011;1352;48.446;9.156;2022-11-20T00:41:14;5.93;;;5.13;;
2684;SDS011;1352;48.446;9.156;2022-11-20T00:44:03;5.97;;;5.37;;
2684;SDS011;1352;48.446;9.156;2022-11-20T00:46:53;6.73;;;5.20;;
2684;SDS011;1352;48.446;9.156;2022-11-20T00:49:35;5.87;;;5.37;;
2684;SDS011;1352;48.446;9.156;2022-11-20T00:52:03;5.30;;;4.87;;
2684;SDS011;1352;48.446;9.156;2022-11-20T00:54:35;5.63;;;5.10;;
2684;SDS011;1352;48.446;9.156;2022-11-20T00:57:15;6.03;;;5.43;;
2684;SDS011;1352;48.446;9.156;2022-11-20T00:59:46;5.37;;;4.87;;
2684;SDS011;1352;48.446;9.156;2022-11-20T01:02:33;5.73;;;4.77;;
2684;SDS011;1352;48.446;9.156;2022-11-20T01:05:02;6.40;;;5.77;;
2684;SDS011;1352;48.446;9.156;2022-11-20T01:07:42;8.40;;;6.20;;
2684;SDS011;1352;48.446;9.156;2022-11-20T01:10:20;5.90;;;4.93;;
2684;SDS011;1352;48.446;9.156;2022-11-20T01:13:03;5.70;;;5.20;;
2684;SDS011;1352;48.446;9.156;2022-11-20T01:16:01;4.40;;;3.97;;
2684;SDS011;1352;48.446;9.156;2022-11-20T01:18:34;5.73;;;4.87;;
2684;SDS011;1352;48.446;9.156;2022-11-20T01:21:03;5.30;;;4.37;;
2684;SDS011;1352;48.446;9.156;2022-11-20T01:23:36;5.43;;;4.40;;
2684;SDS011;1352;48.446;9.156;2022-11-20T01:26:24;7.43;;;5.10;;
2684;SDS011;1352;48.446;9.156;2022-11-20T01:28:53;6.80;;;5.20;;
2684;SDS011;1352;48.446;9.156;2022-11-20T01:31:25;5.80;;;5.03;;
2684;SDS011;1352;48.446;9.156;2022-11-20T01:33:56;5.40;;;4.83;;
2684;SDS011;1352;48.446;9.156;2022-11-20T01:36:30;6.10;;;5.50;;
2684;SDS011;1352;48.446;9.156;2022-11-20T01:39:03;6.70;;;5.23;;
2684;SDS011;1352;48.446;9.156;2022-11-20T01:41:33;6.60;;;5.30;;
2684;SDS011;1352;48.446;9.156;2022-11-20T01:47:20;6.00;;;5.40;;
2684;SDS011;1352;48.446;9.156;2022-11-20T01:49:56;4.37;;;3.87;;
2684;SDS011;1352;48.446;9.156;2022-11-20T01:52:33;5.40;;;4.90;;
2684;SDS011;1352;48.446;9.156;2022-11-20T01:55:13;4.70;;;3.67;;
2684;SDS011;1352;48.446;9.156;2022-11-20T01:57:46;4.33;;;3.90;;
2684;SDS011;1352;48.446;9.156;2022-11-20T02:00:22;4.23;;;3.83;;
2684;SDS011;1352;48.446;9.156;2022-11-20T02:02:56;4.47;;;4.07;;
2684;SDS011;1352;48.446;9.156;2022-11-20T02:05:29;4.97;;;4.20;;
2684;SDS011;1352;48.446;9.156;2022-11-20T02:08:02;3.77;;;3.40;;
2684;SDS011;1352;48.446;9.156;2022-11-20T02:10:34;4.23;;;3.80;;
2684;SDS011;1352;48.446;9.156;2022-11-20T02:13:04;3.80;;;3.50;;
2684;SDS011;1352;48.446;9.156;2022-11-20T02:15:52;3.83;;;3.53;;
2684;SDS011;1352;48.446;9.156;2022-11-20T02:18:31;3.77;;;3.10;;
2684;SDS011;1352;48.446;9.156;2022-11-20T02:21:05;3.27;;;2.97;;
2684;SDS011;1352;48.446;9.156;2022-11-20T02:23:52;4.20;;;3.10;;
2684;SDS011;1352;48.446;9.156;2022-11-20T02:26:43;3.20;;;2.90;;
2684;SDS011;1352;48.446;9.156;2022-11-20T02:29:22;4.17;;;3.57;;
2684;SDS011;1352;48.446;9.156;2022-11-20T02:32:16;4.00;;;3.23;;
2684;SDS011;1352;48.446;9.156;2022-11-20T02:34:45;3.97;;;3.07;;
2684;SDS011;1352;48.446;9.156;2022-11-20T02:37:13;3.13;;;2.93;;
2684;SDS011;1352;48.446;9.156;2022-11-20T02:39:46;3.47;;;3.23;;
2684;SDS011;1352;48.446;9.156;2022-11-20T02:42:15;3.63;;;3.10;;
2684;SDS011;1352;48.446;9.156;2022-11-20T02:44:46;3.23;;;3.03;;
2684;SDS011;1352;48.446;9.156;2022-11-20T02:47:14;3.20;;;2.90;;
2684;SDS011;1352;48.446;9.156;2022-11-20T02:49:46;3.43;;;3.00;;
2684;SDS011;1352;48.446;9.156;2022-11-20T02:52:26;3.20;;;2.90;;
2684;SDS011;1352;48.446;9.156;2022-11-20T02:55:00;3.53;;;3.23;;
2684;SDS011;1352;48.446;9.156;2022-11-20T02:57:30;2.97;;;2.77;;
2684;SDS011;1352;48.446;9.156;2022-11-20T02:59:57;3.40;;;2.87;;
2684;SDS011;1352;48.446;9.156;2022-11-20T03:02:32;3.70;;;3.40;;
2684;SDS011;1352;48.446;9.156;2022-11-20T03:05:06;3.37;;;3.10;;
2684;SDS011;1352;48.446;9.156;2022-11-20T03:07:40;4.03;;;3.63;;
2684;SDS011;1352;48.446;9.156;2022-11-20T03:13:06;3.00;;;2.70;;
2684;SDS011;1352;48.446;9.156;2022-11-20T03:15:37;3.37;;;2.37;;
2684;SDS011;1352;48.446;9.156;2022-11-20T03:18:22;2.13;;;2.03;;
2684;SDS011;1352;48.446;9.156;2022-11-20T03:20:56;3.30;;;2.70;;
2684;SDS011;1352;48.446;9.156;2022-11-20T03:23:25;3.10;;;2.60;;
2684;SDS011;1352;48.446;9.156;2022-11-20T03:25:54;6.07;;;3.10;;
2684;SDS011;1352;48.446;9.156;2022-11-20T03:28:22;2.37;;;2.23;;
2684;SDS011;1352;48.446;9.156;2022-11-20T03:30:52;2.93;;;2.67;;
2684;SDS011;1352;48.446;9.156;2022-11-20T03:33:37;3.23;;;3.03;;
2684;SDS011;1352;48.446;9.156;2022-11-20T03:36:16;2.87;;;2.67;;
2684;SDS011;1352;48.446;9.156;2022-11-20T03:38:48;2.37;;;2.17;;
2684;SDS011;1352;48.446;9.156;2022-11-20T03:41:20;2.70;;;2.50;;
2684;SDS011;1352;48.446;9.156;2022-11-20T03:43:51;3.53;;;2.53;;
2684;SDS011;1352;48.446;9.156;2022-11-20T03:46:24;3.23;;;2.93;;
2684;SDS011;1352;48.446;9.156;2022-11-20T03:49:01;2.83;;;2.60;;
2684;SDS011;1352;48.446;9.156;2022-11-20T03:51:42;2.47;;;2.37;;
2684;SDS011;1352;48.446;9.156;2022-11-20T03:54:16;4.10;;;2.80;;
2684;SDS011;1352;48.446;9.156;2022-11-20T03:56:46;3.77;;;2.63;;
2684;SDS011;1352;48.446;9.156;2022-11-20T03:59:19;3.03;;;2.13;;
2684;SDS011;1352;48.446;9.156;2022-11-20T04:01:50;3.60;;;2.90;;
2684;SDS011;1352;48.446;9.156;2022-11-20T04:04:31;2.70;;;2.43;;
2684;SDS011;1352;48.446;9.156;2022-11-20T04:07:05;3.00;;;2.70;;
2684;SDS011;1352;48.446;9.156;2022-11-20T04:09:36;2.70;;;2.50;;
2684;SDS011;1352;48.446;9.156;2022-11-20T04:12:11;2.60;;;2.40;;
2684;SDS011;1352;48.446;9.156;2022-11-20T04:14:39;3.70;;;3.40;;
2684;SDS011;1352;48.446;9.156;2022-11-20T04:17:13;3.37;;;2.90;;
2684;SDS011;1352;48.446;9.156;2022-11-20T04:19:46;2.10;;;2.00;;
2684;SDS011;1352;48.446;9.156;2022-11-20T04:22:17;2.10;;;2.00;;
2684;SDS011;1352;48.446;9.156;2022-11-20T04:24:54;5.33;;;3.30;;
2684;SDS011;1352;48.446;9.156;2022-11-20T04:27:24;2.33;;;2.13;;
2684;SDS011;1352;48.446;9.156;2022-11-20T04:29:54;2.43;;;2.20;;
2684;SDS011;1352;48.446;9.156;2022-11-20T04:32:22;3.13;;;2.90;;
2684;SDS011;1352;48.446;9.156;2022-11-20T04:34:51;2.77;;;2.33;;
2684;SDS011;1352;48.446;9.156;2022-11-20T04:37:22;2.00;;;1.80;;
2684;SDS011;1352;48.446;9.156;2022-11-20T04:39:51;3.50;;;3.20;;
2684;SDS011;1352;48.446;9.156;2022-11-20T04:42:19;2.30;;;2.10;;
2684;SDS011;1352;48.446;9.156;2022-11-20T04:44:57;3.00;;;2.40;;
2684;SDS011;1352;48.446;9.156;2022-11-20T04:47:44;2.53;;;1.90;;
2684;SDS011;1352;48.446;9.156;2022-11-20T04:50:29;4.03;;;1.97;;
2684;SDS011;1352;48.446;9.156;2022-11-20T04:52:57;2.57;;;2.47;;
2684;SDS011;1352;48.446;9.156;2022-11-20T04:55:46;2.20;;;2.00;;
2684;SDS011;1352;48.446;9.156;2022-11-20T04:58:31;2.00;;;1.90;;
2684;SDS011;1352;48.446;9.156;2022-11-20T05:01:07;3.17;;;2.17;;
2684;SDS011;1352;48.446;9.156;2022-11-20T05:03:43;2.37;;;1.97;;
2684;SDS011;1352;48.446;9.156;2022-11-20T05:06:15;2.73;;;1.93;;
2684;SDS011;1352;48.446;9.156;2022-11-20T05:08:47;2.40;;;2.00;;
2684;SDS011;1352;48.446;9.156;2022-11-20T05:11:15;2.13;;;2.03;;
2684;SDS011;1352;48.446;9.156;2022-11-20T05:13:43;2.27;;;2.07;;
2684;SDS011;1352;48.446;9.156;2022-11-20T05:16:15;2.00;;;1.90;;
2684;SDS011;1352;48.446;9.156;2022-11-20T05:18:47;4.90;;;2.00;;
2684;SDS011;1352;48.446;9.156;2022-11-20T05:21:26;2.20;;;2.00;;
2684;SDS011;1352;48.446;9.156;2022-11-20T05:24:00;2.27;;;2.07;;
2684;SDS011;1352;48.446;9.156;2022-11-20T05:26:32;2.30;;;1.83;;
2684;SDS011;1352;48.446;9.156;2022-11-20T05:28:59;2.10;;;2.00;;
2684;SDS011;1352;48.446;9.156;2022-11-20T05:31:34;3.10;;;2.60;;
2684;SDS011;1352;48.446;9.156;2022-11-20T05:34:08;2.60;;;1.90;;
2684;SDS011;1352;48.446;9.156;2022-11-20T05:36:55;2.03;;;1.93;;
2684;SDS011;1352;48.446;9.156;2022-11-20T05:39:34;2.60;;;2.03;;
2684;SDS011;1352;48.446;9.156;2022-11-20T05:42:24;2.77;;;2.47;;
2684;SDS011;1352;48.446;9.156;2022-11-20T05:45:19;1.97;;;1.87;;
2684;SDS011;1352;48.446;9.156;2022-11-20T05:48:20;2.10;;;1.90;;
2684;SDS011;1352;48.446;9.156;2022-11-20T05:51:32;2.37;;;2.27;;
2684;SDS011;1352;48.446;9.156;2022-11-20T05:57:02;2.67;;;2.47;;
2684;SDS011;1352;48.446;9.156;2022-11-20T05:59:51;2.47;;;2.27;;
2684;SDS011;1352;48.446;9.156;2022-11-20T06:02:34;2.83;;;2.63;;
2684;SDS011;1352;48.446;9.156;2022-11-20T06:05:16;5.13;;;2.53;;
2684;SDS011;1352;48.446;9.156;2022-11-20T06:07:44;2.90;;;2.50;;
2684;SDS011;1352;48.446;9.156;2022-11-20T06:10:14;2.60;;;2.27;;
2684;SDS011;1352;48.446;9.156;2022-11-20T06:12:55;2.00;;;1.90;;
2684;SDS011;1352;48.446;9.156;2022-11-20T06:15:35;2.20;;;2.07;;
2684;SDS011;1352;48.446;9.156;2022-11-20T06:18:08;4.43;;;2.10;;
2684;SDS011;1352;48.446;9.156;2022-11-20T06:21:00;2.20;;;2.03;;
2684;SDS011;1352;48.446;9.156;2022-11-20T06:23:38;3.30;;;2.47;;
2684;SDS011;1352;48.446;9.156;2022-11-20T06:26:31;2.40;;;2.20;;
2684;SDS011;1352;48.446;9.156;2022-11-20T06:29:13;3.10;;;2.80;;
2684;SDS011;1352;48.446;9.156;2022-11-20T06:32:09;2.17;;;1.97;;
2684;SDS011;1352;48.446;9.156;2022-11-20T06:35:10;2.40;;;2.20;;
2684;SDS011;1352;48.446;9.156;2022-11-20T06:38:16;2.63;;;1.97;;
2684;SDS011;1352;48.446;9.156;2022-11-20T06:41:12;4.90;;;2.50;;
2684;SDS011;1352;48.446;9.156;2022-11-20T06:44:14;2.40;;;2.20;;
2684;SDS011;1352;48.446;9.156;2022-11-20T06:46:55;2.73;;;2.30;;
2684;SDS011;1352;48.446;9.156;2022-11-20T06:49:36;4.37;;;2.87;;
2684;SDS011;1352;48.446;9.156;2022-11-20T06:52:27;3.10;;;2.80;;
2684;SDS011;1352;48.446;9.156;2022-11-20T06:55:15;2.90;;;2.57;;
2684;SDS011;1352;48.446;9.156;2022-11-20T06:58:06;2.70;;;2.50;;
2684;SDS011;1352;48.446;9.156;2022-11-20T07:00:53;2.90;;;2.33;;
2684;SDS011;1352;48.446;9.156;2022-11-20T07:06:48;2.20;;;2.00;;
2684;SDS011;1352;48.446;9.156;2022-11-20T07:09:45;2.63;;;2.40;;
2684;SDS011;1352;48.446;9.156;2022-11-20T07:15:07;1.90;;;1.80;;
2684;SDS011;1352;48.446;9.156;2022-11-20T07:17:49;2.83;;;2.37;;
2684;SDS011;1352;48.446;9.156;2022-11-20T07:20:44;2.10;;;1.90;;
2684;SDS011;1352;48.446;9.156;2022-11-20T07:23:24;3.80;;;2.10;;
2684;SDS011;1352;48.446;9.156;2022-11-20T07:26:01;2.23;;;2.13;;
2684;SDS011;1352;48.446;9.156;2022-11-20T07:28:32;2.03;;;1.80;;
2684;SDS011;1352;48.446;9.156;2022-11-20T07:31:00;2.53;;;2.33;;
2684;SDS011;1352;48.446;9.156;2022-11-20T07:33:35;2.60;;;2.03;;
2684;SDS011;1352;48.446;9.156;2022-11-20T07:36:14;2.33;;;2.20;;
2684;SDS011;1352;48.446;9.156;2022-11-20T07:38:48;2.37;;;2.17;;
2684;SDS011;1352;48.446;9.156;2022-11-20T07:41:50;2.30;;;2.10;;
2684;SDS011;1352;48.446;9.156;2022-11-20T07:44:45;2.37;;;1.90;;
2684;SDS011;1352;48.446;9.156;2022-11-20T07:47:47;1.50;;;1.40;;
2684;SDS011;1352;48.446;9.156;2022-11-20T07:50:31;2.10;;;2.00;;
2684;SDS011;1352;48.446;9.156;2022-11-20T07:53:08;1.93;;;1.73;;
2684;SDS011;1352;48.446;9.156;2022-11-20T07:55:59;4.97;;;2.57;;
2684;SDS011;1352;48.446;9.156;2022-11-20T07:58:41;2.33;;;2.10;;
2684;SDS011;1352;48.446;9.156;2022-11-20T08:01:19;1.60;;;1.50;;
2684;SDS011;1352;48.446;9.156;2022-11-20T08:04:01;1.83;;;1.60;;
2684;SDS011;1352;48.446;9.156;2022-11-20T08:07:04;1.90;;;1.80;;
2684;SDS011;1352;48.446;9.156;2022-11-20T08:10:15;2.30;;;2.20;;
2684;SDS011;1352;48.446;9.156;2022-11-20T08:13:00;2.33;;;2.20;;
2684;SDS011;1352;48.446;9.156;2022-11-20T08:15:59;2.53;;;1.87;;
2684;SDS011;1352;48.446;9.156;2022-11-20T08:18:45;2.13;;;2.03;;
2684;SDS011;1352;48.446;9.156;2022-11-20T08:21:24;1.67;;;1.57;;
2684;SDS011;1352;48.446;9.156;2022-11-20T08:24:21;1.87;;;1.77;;
2684;SDS011;1352;48.446;9.156;2022-11-20T08:27:17;1.77;;;1.47;;
2684;SDS011;1352;48.446;9.156;2022-11-20T08:29:45;1.90;;;1.80;;
2684;SDS011;1352;48.446;9.156;2022-11-20T08:32:22;2.57;;;1.70;;
2684;SDS011;1352;48.446;9.156;2022-11-20T08:34:58;2.20;;;2.03;;
2684;SDS011;1352;48.446;9.156;2022-11-20T08:37:31;2.87;;;1.80;;
2684;SDS011;1352;48.446;9.156;2022-11-20T08:40:15;2.13;;;1.93;;
2684;SDS011;1352;48.446;9.156;2022-11-20T08:43:00;2.33;;;2.00;;
2684;SDS011;1352;48.446;9.156;2022-11-20T08:45:48;2.13;;;1.97;;
2684;SDS011;1352;48.446;9.156;2022-11-20T08:49:06;1.87;;;1.60;;
2684;SDS011;1352;48.446;9.156;2022-11-20T08:52:13;2.50;;;1.80;;
2684;SDS011;1352;48.446;9.156;2022-11-20T08:58:21;1.60;;;1.50;;
2684;SDS011;1352;48.446;9.156;2022-11-20T09:01:26;2.20;;;2.00;;
2684;SDS011;1352;48.446;9.156;2022-11-20T09:04:26;2.00;;;1.80;;
2684;SDS011;1352;48.446;9.156;2022-11-20T09:06:56;1.90;;;1.67;;
2684;SDS011;1352;48.446;9.156;2022-11-20T09:09:48;2.00;;;1.63;;
2684;SDS011;1352;48.446;9.156;2022-11-20T09:12:55;1.50;;;1.40;;
2684;SDS011;1352;48.446;9.156;2022-11-20T09:15:56;1.47;;;1.37;;
2684;SDS011;1352;48.446;9.156;2022-11-20T09:21:46;2.20;;;1.30;;
2684;SDS011;1352;48.446;9.156;2022-11-20T09:24:21;1.50;;;1.40;;
2684;SDS011;1352;48.446;9.156;2022-11-20T09:26:53;1.63;;;1.53;;
2684;SDS011;1352;48.446;9.156;2022-11-20T09:29:24;1.60;;;1.50;;
2684;SDS011;1352;48.446;9.156;2022-11-20T09:32:09;2.03;;;1.83;;
2684;SDS011;1352;48.446;9.156;2022-11-20T09:34:43;1.97;;;1.37;;
2684;SDS011;1352;48.446;9.156;2022-11-20T09:37:36;1.77;;;1.67;;
2684;SDS011;1352;48.446;9.156;2022-11-20T09:40:34;2.47;;;1.70;;
2684;SDS011;1352;48.446;9.156;2022-11-20T09:46:47;1.30;;;1.20;;
2684;SDS011;1352;48.446;9.156;2022-11-20T09:49:55;1.30;;;1.30;;
2684;SDS011;1352;48.446;9.156;2022-11-20T09:53:08;1.90;;;1.80;;
2684;SDS011;1352;48.446;9.156;2022-11-20T09:56:12;2.20;;;1.90;;
2684;SDS011;1352;48.446;9.156;2022-11-20T09:59:15;2.47;;;2.27;;
2684;SDS011;1352;48.446;9.156;2022-11-20T10:02:12;1.83;;;1.73;;
2684;SDS011;1352;48.446;9.156;2022-11-20T10:04:51;2.00;;;1.63;;
2684;SDS011;1352;48.446;9.156;2022-11-20T10:07:30;2.50;;;2.20;;
2684;SDS011;1352;48.446;9.156;2022-11-20T10:10:13;1.83;;;1.73;;
2684;SDS011;1352;48.446;9.156;2022-11-20T10:12:52;1.60;;;1.50;;
2684;SDS011;1352;48.446;9.156;2022-11-20T10:15:32;2.27;;;2.07;;
2684;SDS011;1352;48.446;9.156;2022-11-20T10:18:27;2.90;;;2.17;;
2684;SDS011;1352;48.446;9.156;2022-11-20T10:21:09;2.77;;;2.47;;
2684;SDS011;1352;48.446;9.156;2022-11-20T10:23:59;1.80;;;1.70;;
2684;SDS011;1352;48.446;9.156;2022-11-20T10:26:43;2.03;;;1.80;;
2684;SDS011;1352;48.446;9.156;2022-11-20T10:29:21;1.80;;;1.70;;
2684;SDS011;1352;48.446;9.156;2022-11-20T10:31:56;2.30;;;2.07;;
2684;SDS011;1352;48.446;9.156;2022-11-20T10:34:38;2.37;;;2.17;;
2684;SDS011;1352;48.446;9.156;2022-11-20T10:37:18;2.50;;;1.87;;
2684;SDS011;1352;48.446;9.156;2022-11-20T10:40:00;2.57;;;1.90;;
2684;SDS011;1352;48.446;9.156;2022-11-20T10:43:04;2.77;;;2.23;;
2684;SDS011;1352;48.446;9.156;2022-11-20T10:45:53;1.90;;;1.80;;
2684;SDS011;1352;48.446;9.156;2022-11-20T10:48:32;3.80;;;1.93;;
2684;SDS011;1352;48.446;9.156;2022-11-20T10:51:07;1.97;;;1.60;;
2684;SDS011;1352;48.446;9.156;2022-11-20T10:53:47;1.90;;;1.80;;
2684;SDS011;1352;48.446;9.156;2022-11-20T10:56:30;2.80;;;1.90;;
2684;SDS011;1352;48.446;9.156;2022-11-20T11:02:18;2.30;;;2.10;;
2684;SDS011;1352;48.446;9.156;2022-11-20T11:04:53;1.70;;;1.60;;
2684;SDS011;1352;48.446;9.156;2022-11-20T11:07:30;2.13;;;1.93;;
2684;SDS011;1352;48.446;9.156;2022-11-20T11:10:31;2.23;;;2.13;;
2684;SDS011;1352;48.446;9.156;2022-11-20T11:13:37;2.20;;;2.00;;
2684;SDS011;1352;48.446;9.156;2022-11-20T11:16:57;1.77;;;1.67;;
2684;SDS011;1352;48.446;9.156;2022-11-20T11:19:20;2.20;;;2.10;;
2684;SDS011;1352;48.446;9.156;2022-11-20T11:22:01;2.47;;;2.23;;
2684;SDS011;1352;48.446;9.156;2022-11-20T11:24:52;2.30;;;2.10;;
2684;SDS011;1352;48.446;9.156;2022-11-20T11:27:24;2.10;;;1.80;;
2684;SDS011;1352;48.446;9.156;2022-11-20T11:33:19;1.70;;;1.60;;
2684;SDS011;1352;48.446;9.156;2022-11-20T11:35:52;2.83;;;2.57;;
2684;SDS011;1352;48.446;9.156;2022-11-20T11:38:27;2.10;;;1.80;;
2684;SDS011;1352;48.446;9.156;2022-11-20T11:40:59;2.10;;;2.00;;
2684;SDS011;1352;48.446;9.156;2022-11-20T11:43:31;5.23;;;1.83;;
2684;SDS011;1352;48.446;9.156;2022-11-20T11:46:24;2.43;;;2.20;;
2684;SDS011;1352;48.446;9.156;2022-11-20T11:49:13;3.50;;;1.63;;
2684;SDS011;1352;48.446;9.156;2022-11-20T11:51:55;3.03;;;1.70;;
2684;SDS011;1352;48.446;9.156;2022-11-20T11:54:32;2.23;;;1.80;;
2684;SDS011;1352;48.446;9.156;2022-11-20T11:57:11;1.87;;;1.77;;
2684;SDS011;1352;48.446;9.156;2022-11-20T12:00:01;2.13;;;1.93;;
2684;SDS011;1352;48.446;9.156;2022-11-20T12:02:37;1.90;;;1.80;;
2684;SDS011;1352;48.446;9.156;2022-11-20T12:05:17;2.10;;;2.00;;
2684;SDS011;1352;48.446;9.156;2022-11-20T12:07:48;3.27;;;1.90;;
2684;SDS011;1352;48.446;9.156;2022-11-20T12:10:34;2.00;;;1.90;;
2684;SDS011;1352;48.446;9.156;2022-11-20T12:13:24;3.90;;;1.73;;
2684;SDS011;1352;48.446;9.156;2022-11-20T12:16:17;2.80;;;2.00;;
2684;SDS011;1352;48.446;9.156;2022-11-20T12:19:25;2.23;;;2.03;;
2684;SDS011;1352;48.446;9.156;2022-11-20T12:22:26;2.53;;;2.20;;
2684;SDS011;1352;48.446;9.156;2022-11-20T12:25:21;2.10;;;2.00;;
2684;SDS011;1352;48.446;9.156;2022-11-20T12:28:04;2.00;;;1.90;;
2684;SDS011;1352;48.446;9.156;2022-11-20T12:31:14;2.23;;;2.03;;
2684;SDS011;1352;48.446;9.156;2022-11-20T12:34:02;5.97;;;2.40;;
2684;SDS011;1352;48.446;9.156;2022-11-20T12:36:44;2.33;;;2.00;;
2684;SDS011;1352;48.446;9.156;2022-11-20T12:39:35;2.70;;;2.13;;
2684;SDS011;1352;48.446;9.156;2022-11-20T12:42:23;1.80;;;1.70;;
2684;SDS011;1352;48.446;9.156;2022-11-20T12:45:42;2.63;;;2.20;;
2684;SDS011;1352;48.446;9.156;2022-11-20T12:48:45;3.60;;;2.17;;
2684;SDS011;1352;48.446;9.156;2022-11-20T12:54:46;2.10;;;1.90;;
2684;SDS011;1352;48.446;9.156;2022-11-20T12:57:46;2.00;;;1.87;;
2684;SDS011;1352;48.446;9.156;2022-11-20T13:00:35;2.13;;;2.03;;
2684;SDS011;1352;48.446;9.156;2022-11-20T13:03:27;2.87;;;2.53;;
2684;SDS011;1352;48.446;9.156;2022-11-20T13:06:13;1.97;;;1.80;;
2684;SDS011;1352;48.446;9.156;2022-11-20T13:08:57;2.67;;;2.47;;
2684;SDS011;1352;48.446;9.156;2022-11-20T13:11:39;1.70;;;1.60;;
2684;SDS011;1352;48.446;9.156;2022-11-20T13:14:14;4.17;;;2.20;;
2684;SDS011;1352;48.446;9.156;2022-11-20T13:17:05;1.83;;;1.73;;
2684;SDS011;1352;48.446;9.156;2022-11-20T13:20:12;2.43;;;1.53;;
2684;SDS011;1352;48.446;9.156;2022-11-20T13:22:56;2.30;;;1.90;;
2684;SDS011;1352;48.446;9.156;2022-11-20T13:25:32;2.20;;;2.00;;
2684;SDS011;1352;48.446;9.156;2022-11-20T13:28:05;3.03;;;1.87;;
2684;SDS011;1352;48.446;9.156;2022-11-20T13:31:27;2.00;;;1.80;;
2684;SDS011;1352;48.446;9.156;2022-11-20T13:34:13;2.67;;;1.73;;
2684;SDS011;1352;48.446;9.156;2022-11-20T13:36:56;3.93;;;2.00;;
2684;SDS011;1352;48.446;9.156;2022-11-20T13:39:32;2.10;;;1.60;;
2684;SDS011;1352;48.446;9.156;2022-11-20T13:42:22;1.97;;;1.37;;
2684;SDS011;1352;48.446;9.156;2022-11-20T13:45:22;3.70;;;2.10;;
2684;SDS011;1352;48.446;9.156;2022-11-20T13:47:55;2.10;;;1.90;;
2684;SDS011;1352;48.446;9.156;2022-11-20T13:51:23;3.30;;;1.70;;
2684;SDS011;1352;48.446;9.156;2022-11-20T13:53:56;2.97;;;1.97;;
2684;SDS011;1352;48.446;9.156;2022-11-20T13:57:28;1.97;;;1.77;;
2684;SDS011;1352;48.446;9.156;2022-11-20T14:00:28;1.73;;;1.60;;
2684;SDS011;1352;48.446;9.156;2022-11-20T14:03:18;2.20;;;2.10;;
2684;SDS011;1352;48.446;9.156;2022-11-20T14:06:11;2.50;;;2.40;;
2684;SDS011;1352;48.446;9.156;2022-11-20T14:08:59;1.70;;;1.60;;
2684;SDS011;1352;48.446;9.156;2022-11-20T14:11:48;1.90;;;1.80;;
2684;SDS011;1352;48.446;9.156;2022-11-20T14:14:33;3.77;;;2.10;;
2684;SDS011;1352;48.446;9.156;2022-11-20T14:17:28;2.60;;;2.30;;
2684;SDS011;1352;48.446;9.156;2022-11-20T14:19:58;2.50;;;1.50;;
2684;SDS011;1352;48.446;9.156;2022-11-20T14:22:29;2.40;;;2.20;;
2684;SDS011;1352;48.446;9.156;2022-11-20T14:25:04;2.93;;;2.17;;
2684;SDS011;1352;48.446;9.156;2022-11-20T14:27:34;3.27;;;2.07;;
2684;SDS011;1352;48.446;9.156;2022-11-20T14:30:13;2.27;;;2.07;;
2684;SDS011;1352;48.446;9.156;2022-11-20T14:32:43;2.13;;;1.50;;
2684;SDS011;1352;48.446;9.156;2022-11-20T14:35:17;2.23;;;1.60;;
2684;SDS011;1352;48.446;9.156;2022-11-20T14:37:49;2.83;;;1.93;;
2684;SDS011;1352;48.446;9.156;2022-11-20T14:40:27;2.20;;;2.00;;
2684;SDS011;1352;48.446;9.156;2022-11-20T14:43:00;2.33;;;2.13;;
2684;SDS011;1352;48.446;9.156;2022-11-20T14:45:33;1.93;;;1.83;;
2684;SDS011;1352;48.446;9.156;2022-11-20T14:48:01;3.40;;;2.40;;
2684;SDS011;1352;48.446;9.156;2022-11-20T14:50:31;2.83;;;2.27;;
2684;SDS011;1352;48.446;9.156;2022-11-20T14:52:59;4.93;;;3.00;;
2684;SDS011;1352;48.446;9.156;2022-11-20T14:55:28;3.13;;;2.83;;
2684;SDS011;1352;48.446;9.156;2022-11-20T14:57:58;2.47;;;2.27;;
2684;SDS011;1352;48.446;9.156;2022-11-20T15:00:31;2.47;;;1.90;;
2684;SDS011;1352;48.446;9.156;2022-11-20T15:03:02;3.00;;;2.33;;
2684;SDS011;1352;48.446;9.156;2022-11-20T15:05:44;2.37;;;2.17;;
2684;SDS011;1352;48.446;9.156;2022-11-20T15:08:13;4.17;;;2.57;;
2684;SDS011;1352;48.446;9.156;2022-11-20T15:10:45;3.90;;;2.83;;
2684;SDS011;1352;48.446;9.156;2022-11-20T15:13:14;3.90;;;3.00;;
2684;SDS011;1352;48.446;9.156;2022-11-20T15:15:47;3.70;;;3.40;;
2684;SDS011;1352;48.446;9.156;2022-11-20T15:18:16;5.10;;;3.20;;
2684;SDS011;1352;48.446;9.156;2022-11-20T15:20:47;2.47;;;2.20;;
2684;SDS011;1352;48.446;9.156;2022-11-20T15:23:15;4.53;;;3.30;;
2684;SDS011;1352;48.446;9.156;2022-11-20T15:25:45;3.50;;;3.20;;
2684;SDS011;1352;48.446;9.156;2022-11-20T15:28:15;3.13;;;2.87;;
2684;SDS011;1352;48.446;9.156;2022-11-20T15:30:45;5.83;;;3.27;;
2684;SDS011;1352;48.446;9.156;2022-11-20T15:33:14;2.77;;;2.57;;
2684;SDS011;1352;48.446;9.156;2022-11-20T15:35:48;5.03;;;2.73;;
2684;SDS011;1352;48.446;9.156;2022-11-20T15:38:36;2.70;;;2.30;;
2684;SDS011;1352;48.446;9.156;2022-11-20T15:41:21;2.17;;;2.00;;
2684;SDS011;1352;48.446;9.156;2022-11-20T15:43:55;3.53;;;2.77;;
2684;SDS011;1352;48.446;9.156;2022-11-20T15:46:25;4.13;;;3.20;;
2684;SDS011;1352;48.446;9.156;2022-11-20T15:49:04;2.40;;;2.20;;
2684;SDS011;1352;48.446;9.156;2022-11-20T15:51:47;2.20;;;1.77;;
2684;SDS011;1352;48.446;9.156;2022-11-20T15:54:20;2.60;;;1.93;;
2684;SDS011;1352;48.446;9.156;2022-11-20T15:56:58;2.30;;;2.10;;
2684;SDS011;1352;48.446;9.156;2022-11-20T15:59:31;2.07;;;1.97;;
2684;SDS011;1352;48.446;9.156;2022-11-20T16:02:01;3.30;;;2.17;;
2684;SDS011;1352;48.446;9.156;2022-11-20T16:04:46;2.70;;;2.10;;
2684;SDS011;1352;48.446;9.156;2022-11-20T16:07:25;3.90;;;2.57;;
2684;SDS011;1352;48.446;9.156;2022-11-20T16:10:24;2.37;;;2.27;;
2684;SDS011;1352;48.446;9.156;2022-11-20T16:12:55;1.80;;;1.70;;
2684;SDS011;1352;48.446;9.156;2022-11-20T16:15:44;2.30;;;2.00;;
2684;SDS011;1352;48.446;9.156;2022-11-20T16:18:22;2.20;;;2.00;;
2684;SDS011;1352;48.446;9.156;2022-11-20T16:20:50;2.00;;;1.80;;
2684;SDS011;1352;48.446;9.156;2022-11-20T16:23:27;4.80;;;2.07;;
2684;SDS011;1352;48.446;9.156;2022-11-20T16:26:24;2.00;;;1.90;;
2684;SDS011;1352;48.446;9.156;2022-11-20T16:29:39;2.37;;;1.80;;
2684;SDS011;1352;48.446;9.156;2022-11-20T16:32:12;1.97;;;1.83;;
2684;SDS011;1352;48.446;9.156;2022-11-20T16:35:02;2.03;;;1.83;;
2684;SDS011;1352;48.446;9.156;2022-11-20T16:37:44;1.70;;;1.60;;
2684;SDS011;1352;48.446;9.156;2022-11-20T16:40:29;2.17;;;1.90;;
2684;SDS011;1352;48.446;9.156;2022-11-20T16:43:23;2.20;;;1.97;;
2684;SDS011;1352;48.446;9.156;2022-11-20T16:46:30;3.93;;;1.63;;
2684;SDS011;1352;48.446;9.156;2022-11-20T16:49:15;1.80;;;1.37;;
2684;SDS011;1352;48.446;9.156;2022-11-20T16:51:57;4.10;;;2.27;;
2684;SDS011;1352;48.446;9.156;2022-11-20T16:54:32;1.83;;;1.73;;
2684;SDS011;1352;48.446;9.156;2022-11-20T16:57:11;2.10;;;1.90;;
2684;SDS011;1352;48.446;9.156;2022-11-20T16:59:42;4.50;;;2.23;;
2684;SDS011;1352;48.446;9.156;2022-11-20T17:02:26;1.87;;;1.63;;
2684;SDS011;1352;48.446;9.156;2022-11-20T17:04:54;1.80;;;1.60;;
2684;SDS011;1352;48.446;9.156;2022-11-20T17:07:26;2.10;;;1.90;;
2684;SDS011;1352;48.446;9.156;2022-11-20T17:09:58;1.77;;;1.47;;
2684;SDS011;1352;48.446;9.156;2022-11-20T17:12:26;2.60;;;1.73;;
2684;SDS011;1352;48.446;9.156;2022-11-20T17:14:54;1.87;;;1.60;;
2684;SDS011;1352;48.446;9.156;2022-11-20T17:17:22;1.50;;;1.40;;